Nao Victoria — ECHH — position and weather

sailwx.info

Track history (hours):
 
Tides and Currents Weather Stations Pressure Air Temp Water Temp Dewpoint Dewpoint Depression Visibility Wind Speed Wind Dir Waves Ship Positions

Nao Victoria

Last reported at 2017-Sep-17 21:56 UTC. Time now 2017-Sep-22 17:03 UTC.
Position N 43°30' W 003°20'.

Length 25 m; draft 3.2 m.

Type: Sailing vessel. MMSI: 224123770.

Date/timePositionNaut miles runAvg speedWind from/ knotsBaromVisibWave heightAir tempDewpointWater temp
2017-Sep-17 21:56N 43°30' W 003°20'2 4.2
2017-Sep-17 21:24N 43°29' W 003°17'2 4.0
2017-Sep-17 21:00N 43°28' W 003°15'2 3.7
2017-Sep-17 20:30N 43°27' W 003°13'2 3.5
2017-Sep-17 20:00N 43°26' W 003°11'1 3.0
2017-Sep-17 19:30N 43°25' W 003°09'2 3.1
2017-Sep-17 19:00N 43°25' W 003°07'2 3.1
2017-Sep-17 18:30N 43°24' W 003°05'2 3.0
2017-Sep-17 18:00N 43°22' W 003°04'2 3.7
2017-Sep-17 17:30N 43°21' W 003°02'1 2.8
2017-Sep-17 17:00N 43°20' W 003°01'0 0.0
2017-Sep-17 16:30N 43°20' W 003°01'  
2017-Sep-15 10:50N 43°20' W 003°01'0 0.3
2017-Sep-15 10:30N 43°20' W 003°01'0 0.8
2017-Sep-15 10:01N 43°20' W 003°01'  
2017-Sep-12 07:33N 46°21' W 001°46'1 6.3
2017-Sep-12 07:24N 46°21' W 001°46'3 6.4
2017-Sep-12 07:00N 46°24' W 001°47'3 6.3
2017-Sep-12 06:30N 46°27' W 001°47'3 5.3
2017-Sep-12 06:00N 46°30' W 001°48'0 0.5
2017-Sep-12 05:30N 46°30' W 001°48'0 0.0
2017-Sep-12 05:00N 46°30' W 001°48'  
2017-Sep-09 17:36N 46°30' W 001°48'0 0.0
2017-Sep-09 17:31N 46°30' W 001°48'0 0.9
2017-Sep-09 17:00N 46°30' W 001°48'1 1.5
2017-Sep-09 16:30N 46°29' W 001°47'1 2.3
2017-Sep-09 16:00N 46°30' W 001°48'0 0.1
2017-Sep-09 15:30N 46°30' W 001°48'0 0.0
2017-Sep-09 15:01N 46°30' W 001°48'  
Track history (hours):
 
Tides and Currents Weather Stations Pressure Air Temp Water Temp Dewpoint Dewpoint Depression Visibility Wind Speed Wind Dir Waves Ship Positions

Nao Victoria

Last reported at 2017-Sep-17 21:56 UTC. Time now 2017-Sep-22 17:03 UTC.
Position N 43°30' W 003°20'.

Length 25 m; draft 3.2 m.

Type: Sailing vessel. MMSI: 224123770.

Date/timePositionNaut miles runAvg speedWind from/ knotsBaromVisibWave heightAir tempDewpointWater temp
2017-Sep-17 21:56N 43°30' W 003°20'2 4.2
2017-Sep-17 21:24N 43°29' W 003°17'2 4.0
2017-Sep-17 21:00N 43°28' W 003°15'2 3.7
2017-Sep-17 20:30N 43°27' W 003°13'2 3.5
2017-Sep-17 20:00N 43°26' W 003°11'1 3.0
2017-Sep-17 19:30N 43°25' W 003°09'2 3.1
2017-Sep-17 19:00N 43°25' W 003°07'2 3.1
2017-Sep-17 18:30N 43°24' W 003°05'2 3.0
2017-Sep-17 18:00N 43°22' W 003°04'2 3.7
2017-Sep-17 17:30N 43°21' W 003°02'1 2.8
2017-Sep-17 17:00N 43°20' W 003°01'0 0.0
2017-Sep-17 16:30N 43°20' W 003°01'  
2017-Sep-15 10:50N 43°20' W 003°01'0 0.3
2017-Sep-15 10:30N 43°20' W 003°01'0 0.8
2017-Sep-15 10:01N 43°20' W 003°01'  
2017-Sep-12 07:33N 46°21' W 001°46'1 6.3
2017-Sep-12 07:24N 46°21' W 001°46'3 6.4
2017-Sep-12 07:00N 46°24' W 001°47'3 6.3
2017-Sep-12 06:30N 46°27' W 001°47'3 5.3
2017-Sep-12 06:00N 46°30' W 001°48'0 0.5
2017-Sep-12 05:30N 46°30' W 001°48'0 0.0
2017-Sep-12 05:00N 46°30' W 001°48'  
2017-Sep-09 17:36N 46°30' W 001°48'0 0.0
2017-Sep-09 17:31N 46°30' W 001°48'0 0.9
2017-Sep-09 17:00N 46°30' W 001°48'1 1.5
2017-Sep-09 16:30N 46°29' W 001°47'1 2.3
2017-Sep-09 16:00N 46°30' W 001°48'0 0.1
2017-Sep-09 15:30N 46°30' W 001°48'0 0.0
2017-Sep-09 15:01N 46°30' W 001°48'  

Dump ship's entire track history